Time;durP1;ratioP1;P1;durP2;ratioP2;P2;SDS_P1;SDS_P2;PMS_P1;PMS_P2;Temp;Humidity;BMP_temperature;BMP_pressure;BME280_temperature;BME280_humidity;BME280_pressure;Samples;Min_cycle;Max_cycle;Signal;HPM_P1;HPM_P2
2023/04/30 00:01:53;;;;;;;16.27;10.02;;;;;;;7.88;100.00;102160.56;5256383;28;20025;-68
2023/04/30 00:04:24;;;;;;;14.95;9.68;;;;;;;7.89;100.00;102151.63;5254486;28;20037;-67
2023/04/30 00:06:55;;;;;;;17.67;9.55;;;;;;;7.78;100.00;102148.59;5252604;28;20441;-67
2023/04/30 00:09:26;;;;;;;14.55;9.75;;;;;;;7.80;100.00;102155.53;5258032;28;20029;-67
2023/04/30 00:11:58;;;;;;;15.50;9.85;;;;;;;7.77;100.00;102160.16;5260981;28;20032;-68
2023/04/30 00:14:29;;;;;;;14.23;9.38;;;;;;;7.68;100.00;102164.06;5255533;28;20033;-68
2023/04/30 00:17:01;;;;;;;15.18;10.00;;;;;;;7.69;100.00;102156.94;5255055;28;20115;-67
2023/04/30 00:19:32;;;;;;;14.77;9.93;;;;;;;7.66;100.00;102156.16;5259994;28;20162;-68
2023/04/30 00:22:05;;;;;;;14.32;9.70;;;;;;;7.72;100.00;102163.00;5254933;28;20108;-67
2023/04/30 00:24:36;;;;;;;13.10;9.48;;;;;;;7.69;100.00;102162.25;5255877;28;20063;-67
2023/04/30 00:27:07;;;;;;;16.95;9.80;;;;;;;7.65;100.00;102157.09;5255278;28;20032;-68
2023/04/30 00:29:40;;;;;;;12.63;9.20;;;;;;;7.56;100.00;102162.81;5253293;28;20077;-68
2023/04/30 00:32:11;;;;;;;15.10;9.25;;;;;;;7.55;100.00;102170.81;5255153;28;20032;-68
2023/04/30 00:34:42;;;;;;;14.90;9.85;;;;;;;7.62;100.00;102169.63;5254350;28;20767;-68
2023/04/30 00:37:14;;;;;;;14.35;10.23;;;;;;;7.53;100.00;102164.72;5254814;28;20021;-68
2023/04/30 00:39:45;;;;;;;15.13;10.00;;;;;;;7.52;100.00;102161.22;5254637;28;20494;-68
2023/04/30 00:42:16;;;;;;;15.55;9.85;;;;;;;7.48;100.00;102154.31;5253766;28;20033;-68
2023/04/30 00:44:48;;;;;;;15.98;9.73;;;;;;;7.49;100.00;102163.13;5253471;28;20029;-67
2023/04/30 00:47:19;;;;;;;17.27;10.27;;;;;;;7.47;100.00;102158.72;5253931;28;20434;-67
2023/04/30 00:49:51;;;;;;;16.35;10.50;;;;;;;7.45;100.00;102160.59;5252844;28;20036;-68
2023/04/30 00:52:23;;;;;;;14.60;10.00;;;;;;;7.39;100.00;102165.31;5256943;28;20201;-67
2023/04/30 00:54:55;;;;;;;13.50;9.60;;;;;;;7.41;100.00;102168.75;5252325;28;20089;-68
2023/04/30 00:57:27;;;;;;;17.10;10.15;;;;;;;7.38;100.00;102171.53;5250913;28;20033;-68
2023/04/30 00:59:58;;;;;;;15.27;10.57;;;;;;;7.32;100.00;102154.06;5256231;28;20203;-69
2023/04/30 01:02:30;;;;;;;15.77;10.63;;;;;;;7.29;100.00;102162.19;5257427;28;20431;-67
2023/04/30 01:05:03;;;;;;;14.93;10.25;;;;;;;7.29;100.00;102158.63;5252882;28;20029;-67
2023/04/30 01:07:37;;;;;;;15.65;10.38;;;;;;;7.18;100.00;102159.94;5253214;28;20028;-68
2023/04/30 01:10:09;;;;;;;15.48;10.68;;;;;;;7.22;100.00;102153.59;5253317;28;20060;-67
2023/04/30 01:12:49;;;;;;;17.35;10.55;;;;;;;7.12;100.00;102151.38;5256551;28;20120;-68
2023/04/30 01:15:33;;;;;;;15.65;10.90;;;;;;;7.15;100.00;102146.81;5254018;28;20047;-68
2023/04/30 01:18:11;;;;;;;14.52;10.35;;;;;;;7.07;100.00;102143.59;5251052;28;20475;-68
2023/04/30 01:21:03;;;;;;;15.98;11.18;;;;;;;7.06;100.00;102148.06;5255201;28;20060;-68
2023/04/30 01:23:54;;;;;;;16.20;11.40;;;;;;;7.12;100.00;102157.56;5253883;28;20039;-68
2023/04/30 01:27:02;;;;;;;18.70;11.25;;;;;;;7.09;100.00;102155.00;5248127;28;20040;-67
2023/04/30 01:29:35;;;;;;;17.73;10.85;;;;;;;7.15;100.00;102153.91;5253701;28;20040;-67
2023/04/30 01:32:08;;;;;;;19.80;11.23;;;;;;;7.01;100.00;102152.66;5254045;28;20115;-68
2023/04/30 01:34:40;;;;;;;16.08;11.43;;;;;;;6.98;100.00;102159.88;5250576;28;20376;-67
2023/04/30 01:37:14;;;;;;;16.92;11.02;;;;;;;7.07;100.00;102159.53;5257734;28;20403;-67
2023/04/30 01:40:04;;;;;;;17.90;10.77;;;;;;;6.96;100.00;102156.44;5256000;28;20166;-68
2023/04/30 01:42:50;;;;;;;18.25;12.15;;;;;;;6.96;100.00;102159.09;5257590;28;20033;-68
2023/04/30 01:45:27;;;;;;;16.42;11.35;;;;;;;6.92;100.00;102155.69;5255217;28;20613;-67
2023/04/30 01:48:18;;;;;;;15.05;11.15;;;;;;;6.82;100.00;102157.84;5256766;28;20048;-67
2023/04/30 01:51:00;;;;;;;17.40;11.27;;;;;;;6.86;100.00;102156.81;5258698;28;20063;-67
2023/04/30 01:53:41;;;;;;;17.25;11.25;;;;;;;6.81;100.00;102158.78;5256923;28;20056;-67
2023/04/30 01:56:22;;;;;;;17.83;11.60;;;;;;;6.83;100.00;102159.59;5256125;28;20020;-68
2023/04/30 01:58:53;;;;;;;18.98;12.07;;;;;;;6.76;100.00;102158.09;5257755;28;20028;-67
2023/04/30 02:01:27;;;;;;;18.30;11.95;;;;;;;6.74;100.00;102157.28;5255548;28;20052;-67
2023/04/30 02:03:58;;;;;;;20.10;11.75;;;;;;;6.78;100.00;102166.00;5259500;28;20647;-67
2023/04/30 02:06:30;;;;;;;17.73;12.45;;;;;;;6.73;100.00;102168.84;5254183;28;20467;-67
2023/04/30 02:09:04;;;;;;;18.88;12.63;;;;;;;6.70;100.00;102168.09;5258416;28;20024;-68
2023/04/30 02:11:35;;;;;;;16.60;12.73;;;;;;;6.63;100.00;102172.75;5252969;28;20044;-67
2023/04/30 02:14:06;;;;;;;16.60;11.57;;;;;;;6.65;100.00;102170.91;5259098;28;20048;-68
2023/04/30 02:16:38;;;;;;;19.27;11.95;;;;;;;6.63;100.00;102170.09;5255513;28;20382;-67
2023/04/30 02:19:10;;;;;;;17.15;11.00;;;;;;;6.56;100.00;102165.97;5255524;28;20031;-68
2023/04/30 02:21:41;;;;;;;18.58;12.52;;;;;;;6.53;100.00;102168.75;5263153;28;20037;-68
2023/04/30 02:24:13;;;;;;;20.02;12.77;;;;;;;6.55;100.00;102167.75;5257020;28;20506;-67
2023/04/30 02:26:44;;;;;;;14.70;11.35;;;;;;;6.55;100.00;102167.75;5253550;28;20029;-67
2023/04/30 02:29:16;;;;;;;17.27;12.27;;;;;;;6.60;100.00;102176.41;5261289;28;20074;-68
2023/04/30 02:31:47;;;;;;;18.17;12.95;;;;;;;6.50;100.00;102172.38;5261528;28;20066;-68
2023/04/30 02:34:18;;;;;;;20.05;12.77;;;;;;;6.46;100.00;102168.97;5260522;28;20521;-68
2023/04/30 02:36:50;;;;;;;18.63;12.80;;;;;;;6.45;100.00;102175.19;5263001;28;20196;-68
2023/04/30 02:39:22;;;;;;;22.75;13.95;;;;;;;6.50;100.00;102168.84;5263108;28;20360;-69
2023/04/30 02:41:53;;;;;;;19.73;12.77;;;;;;;6.37;100.00;102166.69;5263788;28;20020;-68
2023/04/30 02:44:25;;;;;;;20.65;13.48;;;;;;;6.40;100.00;102165.69;5266600;28;20063;-67
2023/04/30 02:46:56;;;;;;;18.65;13.55;;;;;;;6.49;100.00;102162.69;5265897;28;20040;-67
2023/04/30 02:49:28;;;;;;;20.73;13.88;;;;;;;6.31;100.00;102164.25;5267068;28;20100;-68
2023/04/30 02:52:00;;;;;;;18.77;13.05;;;;;;;6.28;100.00;102173.16;5265814;28;20379;-67
2023/04/30 02:54:31;;;;;;;18.65;12.95;;;;;;;6.27;100.00;102165.28;5271789;28;20035;-67
2023/04/30 02:57:03;;;;;;;18.23;13.25;;;;;;;6.27;100.00;102170.56;5258746;28;20032;-67
2023/04/30 02:59:34;;;;;;;20.63;13.52;;;;;;;6.30;100.00;102164.31;5262291;28;20424;-67
2023/04/30 03:02:06;;;;;;;21.70;12.93;;;;;;;6.21;100.00;102170.81;5259639;28;20032;-68
2023/04/30 03:04:37;;;;;;;21.27;12.98;;;;;;;6.16;100.00;102167.47;5263413;28;20025;-67
2023/04/30 03:07:09;;;;;;;21.17;13.23;;;;;;;6.11;100.00;102159.69;5264268;28;20554;-68
2023/04/30 03:09:40;;;;;;;19.33;13.15;;;;;;;6.08;100.00;102160.66;5265435;28;20025;-67
2023/04/30 03:12:13;;;;;;;17.55;13.13;;;;;;;6.04;100.00;102158.16;5262564;28;20028;-68
2023/04/30 03:14:44;;;;;;;17.38;12.40;;;;;;;6.03;100.00;102152.00;5262915;28;20426;-67
2023/04/30 03:17:16;;;;;;;21.77;14.05;;;;;;;6.05;100.00;102159.91;5261778;28;20019;-68
2023/04/30 03:19:47;;;;;;;23.42;13.82;;;;;;;6.03;100.00;102153.81;5269709;28;20146;-68
2023/04/30 03:22:22;;;;;;;22.27;14.10;;;;;;;6.01;100.00;102159.16;5259026;28;20032;-68
2023/04/30 03:24:54;;;;;;;20.33;14.07;;;;;;;6.00;100.00;102164.50;5266196;28;20036;-67
2023/04/30 03:27:25;;;;;;;19.25;12.90;;;;;;;5.95;100.00;102158.50;5263228;28;20021;-67
2023/04/30 03:29:56;;;;;;;20.63;14.23;;;;;;;5.93;100.00;102147.09;5271175;28;20142;-67
2023/04/30 03:32:28;;;;;;;23.33;14.43;;;;;;;6.00;100.00;102152.13;5259058;28;20828;-67
2023/04/30 03:34:59;;;;;;;19.08;14.35;;;;;;;5.99;100.00;102160.13;5266948;28;20025;-68
2023/04/30 03:37:31;;;;;;;18.63;13.57;;;;;;;5.89;100.00;102152.47;5263409;28;20478;-68
2023/04/30 03:40:03;;;;;;;20.48;13.50;;;;;;;5.92;100.00;102153.28;5267714;28;20111;-67
2023/04/30 03:42:35;;;;;;;21.00;14.70;;;;;;;5.93;100.00;102157.69;5262828;28;20039;-68
2023/04/30 03:45:06;;;;;;;22.13;14.35;;;;;;;5.89;100.00;102160.44;5265872;28;20483;-67
2023/04/30 03:47:38;;;;;;;22.95;15.45;;;;;;;5.88;100.00;102163.97;5261860;28;20035;-67
2023/04/30 03:50:10;;;;;;;20.25;14.73;;;;;;;5.80;100.00;102167.84;5259643;28;20218;-67
2023/04/30 03:52:41;;;;;;;21.45;15.80;;;;;;;5.77;100.00;102171.47;5254707;28;20435;-67
2023/04/30 03:55:12;;;;;;;22.95;15.77;;;;;;;5.80;100.00;102173.13;5255747;28;20029;-67
2023/04/30 03:57:44;;;;;;;21.15;15.63;;;;;;;5.77;100.00;102168.81;5257228;28;20114;-68
2023/04/30 04:00:16;;;;;;;20.20;15.30;;;;;;;5.80;100.00;102175.78;5254161;28;20438;-67
2023/04/30 04:02:47;;;;;;;21.73;15.05;;;;;;;5.72;100.00;102175.19;5255509;28;20101;-67
2023/04/30 04:05:19;;;;;;;23.60;16.20;;;;;;;5.75;100.00;102177.72;5252435;28;20017;-67
2023/04/30 04:07:50;;;;;;;25.35;16.73;;;;;;;5.74;100.00;102178.66;5255844;28;20013;-67
2023/04/30 04:10:21;;;;;;;26.60;17.50;;;;;;;5.69;100.00;102181.44;5254596;28;20020;-67
2023/04/30 04:12:53;;;;;;;23.20;16.95;;;;;;;5.64;100.00;102186.91;5259166;28;20020;-67
2023/04/30 04:15:24;;;;;;;24.80;17.20;;;;;;;5.61;100.00;102181.72;5264576;28;20479;-67
2023/04/30 04:17:55;;;;;;;22.77;16.27;;;;;;;5.58;100.00;102179.19;5253592;28;20081;-67
2023/04/30 04:20:28;;;;;;;23.45;16.52;;;;;;;5.65;100.00;102179.81;5254481;28;20123;-67
2023/04/30 04:23:00;;;;;;;24.15;17.10;;;;;;;5.70;100.00;102189.34;5253424;28;20028;-67
2023/04/30 04:25:32;;;;;;;23.23;16.95;;;;;;;5.58;100.00;102187.13;5254530;28;20032;-68
2023/04/30 04:28:03;;;;;;;23.85;16.70;;;;;;;5.59;100.00;102190.63;5255840;28;20041;-68
2023/04/30 04:30:35;;;;;;;22.52;16.63;;;;;;;5.67;100.00;102185.94;5252737;28;20083;-67
2023/04/30 04:33:07;;;;;;;23.70;16.63;;;;;;;5.64;100.00;102192.22;5254843;28;20024;-67
2023/04/30 04:35:39;;;;;;;23.60;16.98;;;;;;;5.63;100.00;102198.41;5254002;28;20025;-67
2023/04/30 04:38:11;;;;;;;23.17;16.77;;;;;;;5.59;100.00;102194.13;5255991;28;21504;-67
2023/04/30 04:40:53;;;;;;;25.27;17.35;;;;;;;5.60;100.00;102187.06;5259129;28;20257;-67
2023/04/30 04:43:24;;;;;;;23.60;16.50;;;;;;;5.67;100.00;102197.38;5254918;28;20028;-67
2023/04/30 04:45:56;;;;;;;25.00;17.67;;;;;;;5.68;100.00;102198.25;5252350;28;20070;-68
2023/04/30 04:48:27;;;;;;;22.90;16.33;;;;;;;5.65;100.00;102203.66;5251054;28;20029;-67
2023/04/30 04:50:58;;;;;;;23.85;16.42;;;;;;;5.61;100.00;102200.25;5255186;28;20659;-67
2023/04/30 04:53:30;;;;;;;24.13;16.70;;;;;;;5.64;100.00;102210.75;5253060;28;20056;-67
2023/04/30 04:56:01;;;;;;;26.35;16.63;;;;;;;5.66;100.00;102203.59;5252930;28;20029;-68
2023/04/30 04:58:32;;;;;;;23.25;16.98;;;;;;;5.76;100.00;102198.84;5253783;28;20037;-67
2023/04/30 05:01:04;;;;;;;27.25;17.00;;;;;;;5.74;100.00;102197.19;5251230;28;20428;-67
2023/04/30 05:03:36;;;;;;;24.35;18.15;;;;;;;5.77;100.00;102207.66;5253660;28;20053;-67
2023/04/30 05:06:07;;;;;;;25.48;18.42;;;;;;;5.75;100.00;102206.84;5249055;28;20081;-67
2023/04/30 05:08:39;;;;;;;24.52;18.08;;;;;;;5.78;100.00;102206.75;5251434;28;20029;-67
2023/04/30 05:11:11;;;;;;;26.80;17.75;;;;;;;5.79;100.00;102204.06;5267157;28;20031;-68
2023/04/30 05:13:42;;;;;;;26.52;18.63;;;;;;;5.91;100.00;102200.13;5268237;28;20028;-67
2023/04/30 05:16:13;;;;;;;25.55;18.75;;;;;;;5.89;100.00;102201.97;5263231;28;20027;-67
2023/04/30 05:18:45;;;;;;;29.20;19.45;;;;;;;5.93;100.00;102211.53;5263958;28;20033;-67
2023/04/30 05:21:16;;;;;;;28.20;19.08;;;;;;;5.99;100.00;102206.03;5265004;28;20071;-67
2023/04/30 05:23:48;;;;;;;26.13;19.40;;;;;;;5.99;100.00;102200.72;5262596;28;20029;-67
2023/04/30 05:26:19;;;;;;;25.33;19.02;;;;;;;6.02;100.00;102205.94;5252863;28;20107;-68
2023/04/30 05:28:51;;;;;;;28.73;19.58;;;;;;;6.01;100.00;102206.84;5255145;28;20031;-67
2023/04/30 05:31:22;;;;;;;33.40;21.05;;;;;;;6.04;100.00;102198.78;5257575;28;20486;-67
2023/04/30 05:33:54;;;;;;;27.52;19.85;;;;;;;6.15;100.00;102201.03;5252430;28;20028;-67
2023/04/30 05:36:25;;;;;;;28.23;21.02;;;;;;;6.15;100.00;102205.47;5253443;28;20025;-67
2023/04/30 05:38:56;;;;;;;31.23;21.77;;;;;;;6.20;100.00;102206.19;5253550;28;20268;-68
2023/04/30 05:41:28;;;;;;;27.58;19.40;;;;;;;6.20;100.00;102209.69;5256390;28;20039;-67
2023/04/30 05:44:01;;;;;;;25.85;19.10;;;;;;;6.24;100.00;102211.31;5254154;28;20032;-67
2023/04/30 05:46:34;;;;;;;26.93;19.37;;;;;;;6.25;100.00;102206.88;5257629;28;20020;-68
2023/04/30 05:49:05;;;;;;;25.38;19.27;;;;;;;6.36;100.00;102207.34;5254374;28;20028;-67
2023/04/30 05:51:37;;;;;;;26.73;20.60;;;;;;;6.37;100.00;102206.44;5255548;28;20036;-67
2023/04/30 05:54:08;;;;;;;29.08;19.77;;;;;;;6.46;100.00;102200.81;5255742;28;20032;-68
2023/04/30 05:56:39;;;;;;;24.70;18.08;;;;;;;6.54;100.00;102208.47;5255686;28;20037;-67
2023/04/30 05:59:11;;;;;;;25.92;16.85;;;;;;;6.59;100.00;102201.19;5255480;28;20039;-68
2023/04/30 06:01:42;;;;;;;21.77;16.70;;;;;;;6.60;100.00;102208.22;5253126;28;20450;-67
2023/04/30 06:04:14;;;;;;;23.92;16.70;;;;;;;6.70;100.00;102202.56;5255469;28;20471;-68
2023/04/30 06:06:45;;;;;;;20.45;15.27;;;;;;;6.78;100.00;102205.78;5250977;28;20025;-68
2023/04/30 06:09:16;;;;;;;23.38;15.55;;;;;;;6.77;100.00;102204.03;5256834;28;20032;-67
2023/04/30 06:11:49;;;;;;;19.20;14.27;;;;;;;6.89;100.00;102200.06;5251085;28;20039;-67
2023/04/30 06:14:23;;;;;;;18.38;14.27;;;;;;;6.93;100.00;102193.72;5251407;28;20394;-67
2023/04/30 06:16:55;;;;;;;18.88;14.48;;;;;;;7.09;100.00;102193.97;5250737;28;20035;-67
2023/04/30 06:19:26;;;;;;;22.20;14.75;;;;;;;7.13;100.00;102192.91;5251310;28;20033;-68
2023/04/30 06:21:57;;;;;;;18.08;14.15;;;;;;;7.18;100.00;102191.81;5252439;28;20037;-68
2023/04/30 06:24:29;;;;;;;19.77;14.07;;;;;;;7.20;100.00;102189.94;5251266;28;20036;-67
2023/04/30 06:27:01;;;;;;;19.42;14.00;;;;;;;7.34;100.00;102189.38;5255502;28;20029;-67
2023/04/30 06:29:32;;;;;;;21.73;15.10;;;;;;;7.42;100.00;102192.59;5260538;28;20478;-67
2023/04/30 06:32:04;;;;;;;19.83;13.63;;;;;;;7.45;100.00;102192.44;5260969;28;20059;-67
2023/04/30 06:34:37;;;;;;;18.02;13.15;;;;;;;7.60;100.00;102190.94;5256254;28;20067;-67
2023/04/30 06:37:08;;;;;;;20.90;13.52;;;;;;;7.72;100.00;102194.88;5256705;28;20672;-67
2023/04/30 06:39:39;;;;;;;19.52;13.60;;;;;;;7.79;100.00;102193.69;5260262;28;20031;-67
2023/04/30 06:42:11;;;;;;;21.77;13.48;;;;;;;7.92;100.00;102191.38;5256909;28;20466;-67
2023/04/30 06:44:42;;;;;;;18.92;13.55;;;;;;;7.95;100.00;102191.22;5255934;28;20890;-68
2023/04/30 06:47:14;;;;;;;17.67;13.25;;;;;;;8.04;100.00;102190.81;5255045;28;20036;-68
2023/04/30 06:49:45;;;;;;;18.33;13.35;;;;;;;8.08;100.00;102201.31;5253589;28;20060;-68
2023/04/30 06:52:17;;;;;;;19.10;13.02;;;;;;;8.22;100.00;102193.59;5253585;28;20107;-68
2023/04/30 06:54:48;;;;;;;15.95;12.80;;;;;;;8.31;100.00;102201.16;5252806;28;20079;-67
2023/04/30 06:57:19;;;;;;;24.30;13.48;;;;;;;8.42;100.00;102190.06;5255465;28;20102;-67
2023/04/30 06:59:51;;;;;;;20.67;13.75;;;;;;;8.57;100.00;102194.69;5255859;28;20039;-67
2023/04/30 07:02:22;;;;;;;20.70;14.13;;;;;;;8.61;100.00;102195.38;5251562;28;20047;-67
2023/04/30 07:04:54;;;;;;;18.83;13.85;;;;;;;8.66;100.00;102197.84;5251727;28;20570;-67
2023/04/30 07:07:25;;;;;;;20.80;13.70;;;;;;;8.79;100.00;102201.66;5255430;28;20020;-67
2023/04/30 07:09:57;;;;;;;16.98;12.73;;;;;;;8.87;100.00;102201.28;5252953;28;20428;-67
2023/04/30 07:12:28;;;;;;;18.88;12.75;;;;;;;9.03;100.00;102199.59;5253475;28;20489;-67
2023/04/30 07:14:59;;;;;;;16.88;12.93;;;;;;;9.08;100.00;102194.94;5253045;28;20036;-67
2023/04/30 07:17:31;;;;;;;17.70;13.18;;;;;;;9.29;100.00;102201.00;5257791;28;20138;-67
2023/04/30 07:20:03;;;;;;;16.80;12.77;;;;;;;9.35;100.00;102197.19;5264641;28;20033;-67
2023/04/30 07:22:35;;;;;;;18.33;12.55;;;;;;;9.53;100.00;102190.94;5258241;28;20055;-67
2023/04/30 07:25:07;;;;;;;18.17;12.82;;;;;;;9.56;100.00;102201.41;5257515;28;20029;-67
2023/04/30 07:27:39;;;;;;;16.17;12.43;;;;;;;9.69;100.00;102198.16;5255446;28;20032;-67
2023/04/30 07:30:10;;;;;;;15.73;12.20;;;;;;;9.81;100.00;102192.19;5252217;28;20045;-67
2023/04/30 07:32:42;;;;;;;17.80;13.27;;;;;;;9.96;100.00;102177.19;5251186;28;20028;-67
2023/04/30 07:35:13;;;;;;;16.15;13.05;;;;;;;10.00;100.00;102187.59;5252885;28;20062;-67
2023/04/30 07:37:45;;;;;;;17.83;12.32;;;;;;;10.14;100.00;102180.69;5259615;28;20081;-67
2023/04/30 07:40:16;;;;;;;16.27;11.65;;;;;;;10.10;100.00;102181.78;5261082;28;20037;-67
2023/04/30 07:42:48;;;;;;;17.00;12.15;;;;;;;10.17;100.00;102178.72;5269307;28;20150;-68
2023/04/30 07:45:19;;;;;;;18.33;13.15;;;;;;;10.24;100.00;102179.28;5256624;28;20032;-67
2023/04/30 07:47:50;;;;;;;16.73;12.00;;;;;;;10.29;100.00;102177.19;5267575;28;20457;-67
2023/04/30 07:50:22;;;;;;;14.77;11.23;;;;;;;10.52;100.00;102175.97;5261933;28;20020;-67
2023/04/30 07:52:53;;;;;;;14.73;10.55;;;;;;;10.69;100.00;102174.19;5270446;28;20470;-67
2023/04/30 07:55:24;;;;;;;13.80;11.07;;;;;;;10.70;100.00;102173.22;5261858;28;20165;-67
2023/04/30 07:57:56;;;;;;;15.23;10.68;;;;;;;10.67;100.00;102174.28;5257108;28;20029;-67
2023/04/30 08:00:28;;;;;;;14.25;10.90;;;;;;;10.72;100.00;102176.66;5253604;28;20029;-67
2023/04/30 08:02:59;;;;;;;14.88;11.20;;;;;;;10.86;100.00;102165.25;5254004;28;20072;-67
2023/04/30 08:05:31;;;;;;;13.73;10.95;;;;;;;11.09;100.00;102172.78;5252545;28;20510;-67
2023/04/30 08:08:02;;;;;;;14.27;11.55;;;;;;;11.15;100.00;102172.44;5251740;28;20036;-67
2023/04/30 08:10:35;;;;;;;16.35;10.98;;;;;;;11.32;100.00;102176.81;5270723;28;20024;-67
2023/04/30 08:13:07;;;;;;;12.82;9.63;;;;;;;11.41;100.00;102174.53;5265418;28;20032;-67
2023/04/30 08:15:39;;;;;;;15.55;10.15;;;;;;;11.54;100.00;102168.41;5293238;28;20087;-67
2023/04/30 08:18:10;;;;;;;12.07;9.98;;;;;;;11.67;100.00;102170.34;5255985;28;20070;-68
2023/04/30 08:20:41;;;;;;;14.75;10.18;;;;;;;11.76;100.00;102172.47;5256326;28;20020;-67
2023/04/30 08:23:13;;;;;;;12.38;8.95;;;;;;;11.87;100.00;102178.03;5260688;28;20450;-67
2023/04/30 08:25:44;;;;;;;12.10;8.90;;;;;;;12.03;100.00;102177.13;5261674;28;20028;-68
2023/04/30 08:28:16;;;;;;;13.02;10.43;;;;;;;12.02;100.00;102175.38;5257188;28;20051;-67
2023/04/30 08:30:48;;;;;;;13.40;9.60;;;;;;;12.08;100.00;102172.31;5261468;28;20048;-67
2023/04/30 08:33:19;;;;;;;13.20;9.00;;;;;;;12.40;100.00;102172.16;5260464;28;20025;-67
2023/04/30 08:35:50;;;;;;;13.75;10.27;;;;;;;12.29;100.00;102172.81;5258202;28;20021;-67
2023/04/30 08:38:22;;;;;;;17.38;11.68;;;;;;;12.38;100.00;102176.75;5249785;28;20131;-67
2023/04/30 08:41:05;;;;;;;12.57;10.05;;;;;;;12.48;100.00;102165.38;5252782;28;20032;-67
2023/04/30 08:43:36;;;;;;;12.27;9.20;;;;;;;12.75;100.00;102176.13;5259102;28;20135;-68
2023/04/30 08:46:08;;;;;;;13.38;9.75;;;;;;;12.83;100.00;102169.38;5255065;28;20034;-68
2023/04/30 08:48:40;;;;;;;11.45;9.32;;;;;;;12.93;100.00;102171.38;5253044;28;20045;-67
2023/04/30 08:51:12;;;;;;;12.07;8.63;;;;;;;13.10;100.00;102169.44;5257361;28;20835;-67
2023/04/30 08:53:44;;;;;;;13.45;9.60;;;;;;;13.20;100.00;102167.84;5263179;28;20025;-67
2023/04/30 08:56:15;;;;;;;12.45;8.68;;;;;;;13.28;100.00;102165.50;5261017;28;20036;-67
2023/04/30 08:58:47;;;;;;;12.30;8.82;;;;;;;13.21;100.00;102157.97;5260332;28;20029;-68
2023/04/30 09:01:19;;;;;;;11.73;9.13;;;;;;;13.35;100.00;102166.00;5259848;28;20577;-67
2023/04/30 09:03:50;;;;;;;10.35;8.93;;;;;;;13.40;100.00;102169.22;5262412;28;20050;-68
2023/04/30 09:06:22;;;;;;;15.57;8.63;;;;;;;13.62;100.00;102167.78;5266117;28;20029;-68
2023/04/30 09:08:54;;;;;;;12.73;8.13;;;;;;;13.65;100.00;102164.88;5270502;28;20474;-67
2023/04/30 09:11:30;;;;;;;11.27;8.07;;;;;;;13.69;100.00;102161.00;5261986;28;20032;-68
2023/04/30 09:14:02;;;;;;;12.07;8.63;;;;;;;13.65;100.00;102160.38;5258446;28;20032;-67
2023/04/30 09:16:51;;;;;;;11.88;8.30;;;;;;;13.88;100.00;102157.91;5263269;28;20035;-68
2023/04/30 09:19:29;;;;;;;13.70;8.90;;;;;;;13.93;100.00;102158.47;5263923;28;20067;-67
2023/04/30 09:22:19;;;;;;;10.48;8.57;;;;;;;13.90;100.00;102155.97;5262515;28;20409;-69
2023/04/30 09:24:50;;;;;;;10.90;7.93;;;;;;;14.05;100.00;102156.75;5267719;28;20032;-67
2023/04/30 09:27:22;;;;;;;11.40;8.50;;;;;;;14.18;100.00;102156.75;5264848;28;20040;-68
2023/04/30 09:29:53;;;;;;;11.90;8.63;;;;;;;14.35;100.00;102148.34;5264112;28;20021;-67
2023/04/30 09:32:25;;;;;;;12.02;8.55;;;;;;;14.43;100.00;102155.84;5271079;28;20032;-68
2023/04/30 09:34:56;;;;;;;11.00;8.38;;;;;;;14.58;100.00;102160.16;5261613;28;20059;-68
2023/04/30 09:37:37;;;;;;;12.02;9.43;;;;;;;14.46;100.00;102158.31;5264581;28;20025;-67
2023/04/30 09:40:08;;;;;;;11.50;9.35;;;;;;;14.31;100.00;102153.06;5261948;28;20090;-69
2023/04/30 09:42:59;;;;;;;11.38;9.00;;;;;;;14.54;100.00;102147.88;5265998;28;20569;-68
2023/04/30 09:45:46;;;;;;;11.45;8.52;;;;;;;14.52;100.00;102164.09;5263278;28;20043;-68
2023/04/30 09:48:21;;;;;;;9.93;8.20;;;;;;;14.63;100.00;102149.06;5270607;28;20028;-68
2023/04/30 09:50:53;;;;;;;10.88;8.45;;;;;;;14.65;100.00;102149.78;5265469;28;20048;-67
2023/04/30 09:53:24;;;;;;;10.25;8.25;;;;;;;14.58;100.00;102149.41;5257578;28;20123;-68
2023/04/30 09:55:57;;;;;;;10.18;8.02;;;;;;;14.51;100.00;102154.31;5262472;28;20121;-68
2023/04/30 09:58:34;;;;;;;11.65;8.07;;;;;;;14.60;100.00;102141.22;5269198;28;20412;-68
2023/04/30 10:01:10;;;;;;;9.50;7.32;;;;;;;14.63;100.00;102146.38;5272115;28;20116;-68
2023/04/30 10:03:42;;;;;;;8.98;5.68;;;;;;;14.69;100.00;102144.09;5269964;28;20051;-68
2023/04/30 10:06:17;;;;;;;7.53;5.72;;;;;;;14.63;100.00;102139.19;5259664;28;20032;-68
2023/04/30 10:08:56;;;;;;;11.07;6.82;;;;;;;14.79;100.00;102136.22;5268661;28;20527;-68
2023/04/30 10:11:31;;;;;;;8.75;7.38;;;;;;;14.68;100.00;102139.69;5276147;28;20596;-68
2023/04/30 10:14:09;;;;;;;10.93;7.25;;;;;;;14.90;100.00;102132.75;5263730;28;20039;-68
2023/04/30 10:16:47;;;;;;;9.93;7.53;;;;;;;14.98;100.00;102132.19;5267292;28;20108;-68
2023/04/30 10:19:24;;;;;;;11.00;8.00;;;;;;;15.01;100.00;102135.47;5275139;28;20032;-68
2023/04/30 10:21:56;;;;;;;8.73;7.40;;;;;;;14.95;100.00;102138.63;5277847;28;20424;-68
2023/04/30 10:24:27;;;;;;;11.45;7.72;;;;;;;15.16;100.00;102130.78;5269449;28;20024;-68
2023/04/30 10:26:59;;;;;;;8.60;7.32;;;;;;;15.25;100.00;102123.88;5264021;28;20037;-68
2023/04/30 10:29:31;;;;;;;9.55;7.28;;;;;;;15.35;100.00;102124.88;5269488;28;20060;-68
2023/04/30 10:32:04;;;;;;;9.25;7.68;;;;;;;15.32;100.00;102122.41;5267353;28;20086;-68
2023/04/30 10:34:53;;;;;;;8.98;7.93;;;;;;;15.40;100.00;102113.78;5264981;28;20082;-68
2023/04/30 10:37:42;;;;;;;8.98;7.50;;;;;;;15.28;100.00;102116.44;5268471;28;20024;-68
2023/04/30 10:40:14;;;;;;;9.48;7.55;;;;;;;15.55;100.00;102109.91;5273721;28;20502;-68
2023/04/30 10:42:48;;;;;;;9.48;7.30;;;;;;;15.58;100.00;102100.72;5264233;28;20028;-68
2023/04/30 10:45:34;;;;;;;9.75;7.53;;;;;;;15.58;100.00;102109.66;5274759;28;20028;-68
2023/04/30 10:48:06;;;;;;;10.90;7.60;;;;;;;15.54;100.00;102105.47;5265726;28;20483;-68
2023/04/30 10:50:41;;;;;;;9.88;7.15;;;;;;;15.68;100.00;102105.25;5266987;28;20074;-68
2023/04/30 10:53:16;;;;;;;9.93;7.05;;;;;;;15.67;100.00;102100.00;5273143;28;20036;-68
2023/04/30 10:55:50;;;;;;;8.63;6.53;;;;;;;15.57;100.00;102094.50;5269479;28;20063;-68
2023/04/30 10:58:24;;;;;;;8.55;6.95;;;;;;;15.62;100.00;102096.81;5277189;28;20072;-68
2023/04/30 11:01:21;;;;;;;11.10;6.95;;;;;;;15.80;100.00;102095.41;5266854;28;20043;-68
2023/04/30 11:04:05;;;;;;;5.28;4.18;;;;;;;15.73;100.00;102088.78;5267006;28;20568;-68
2023/04/30 11:07:09;;;;;;;5.67;4.53;;;;;;;15.78;100.00;102081.22;5267984;28;20157;-68
2023/04/30 11:09:42;;;;;;;7.07;4.93;;;;;;;15.74;100.00;102071.66;5249620;28;20059;-68
2023/04/30 11:12:27;;;;;;;7.60;5.15;;;;;;;15.80;100.00;102079.28;5276518;28;20027;-68
2023/04/30 11:15:16;;;;;;;5.68;4.72;;;;;;;15.90;100.00;102067.75;5268371;28;20021;-68
2023/04/30 11:17:48;;;;;;;6.78;5.03;;;;;;;15.80;100.00;102068.50;5266337;28;20027;-70
2023/04/30 11:20:23;;;;;;;7.53;4.88;;;;;;;15.76;100.00;102064.34;5268257;28;20441;-70
2023/04/30 11:23:11;;;;;;;7.47;5.20;;;;;;;15.89;100.00;102061.50;5268915;28;20383;-70
2023/04/30 11:25:47;;;;;;;6.63;4.70;;;;;;;15.77;100.00;102054.44;5271540;28;20048;-69
2023/04/30 11:28:21;;;;;;;8.10;5.57;;;;;;;15.76;100.00;102050.00;5261695;28;20055;-69
2023/04/30 11:30:59;;;;;;;7.07;5.55;;;;;;;15.69;100.00;102055.00;5270433;28;20364;-69
2023/04/30 11:33:32;;;;;;;4.65;3.75;;;;;;;15.74;100.00;102046.59;5260133;28;20036;-69
2023/04/30 11:36:04;;;;;;;5.30;3.92;;;;;;;15.75;100.00;102048.31;5265859;28;21096;-69
2023/04/30 11:38:36;;;;;;;5.13;4.10;;;;;;;15.86;100.00;102038.41;5264148;28;20140;-70